createdAt,value
2023-01-20T00:01:31.919Z,10.05
2023-01-20T00:03:58.770Z,10.27
2023-01-20T00:06:27.929Z,10.48
2023-01-20T00:08:56.314Z,10.17
2023-01-20T00:11:23.428Z,9.20
2023-01-20T00:13:54.849Z,9.13
2023-01-20T00:16:22.110Z,9.35
2023-01-20T00:18:49.072Z,9.80
2023-01-20T00:21:19.263Z,9.03
2023-01-20T00:23:47.145Z,8.10
2023-01-20T00:26:19.397Z,8.07
2023-01-20T00:28:46.680Z,8.52
2023-01-20T00:31:22.440Z,7.45
2023-01-20T00:33:50.768Z,8.33
2023-01-20T00:36:18.777Z,8.40
2023-01-20T00:38:46.631Z,7.97
2023-01-20T00:41:14.948Z,8.95
2023-01-20T00:43:41.705Z,8.88
2023-01-20T00:46:08.581Z,8.33
2023-01-20T00:48:36.017Z,8.82
2023-01-20T00:51:03.990Z,8.68
2023-01-20T00:53:30.676Z,8.77
2023-01-20T00:55:57.551Z,9.02
2023-01-20T00:58:24.344Z,8.40
2023-01-20T01:00:52.470Z,8.77
2023-01-20T01:03:19.376Z,8.80
2023-01-20T01:05:46.308Z,8.32
2023-01-20T01:08:13.338Z,8.57
2023-01-20T01:10:40.707Z,9.07
2023-01-20T01:13:09.025Z,8.20
2023-01-20T01:15:36.356Z,7.97
2023-01-20T01:18:03.676Z,7.75
2023-01-20T01:20:30.804Z,7.75
2023-01-20T01:22:57.579Z,8.03
2023-01-20T01:25:24.558Z,8.40
2023-01-20T01:27:51.277Z,8.80
2023-01-20T01:30:18.165Z,7.60
2023-01-20T01:32:44.977Z,8.88
2023-01-20T01:35:12.298Z,7.47
2023-01-20T01:37:39.259Z,7.70
2023-01-20T01:40:06.846Z,6.90
2023-01-20T01:42:33.629Z,7.55
2023-01-20T01:45:12.819Z,7.57
2023-01-20T01:47:40.697Z,6.30
2023-01-20T01:50:09.825Z,7.55
2023-01-20T01:52:36.650Z,7.45
2023-01-20T01:55:04.127Z,7.43
2023-01-20T01:57:31.719Z,7.50
2023-01-20T01:59:58.491Z,7.73
2023-01-20T02:02:25.389Z,7.75
2023-01-20T02:04:52.145Z,7.65
2023-01-20T02:07:20.900Z,7.43
2023-01-20T02:09:47.706Z,7.15
2023-01-20T02:12:16.177Z,7.40
2023-01-20T02:14:47.037Z,6.78
2023-01-20T02:17:30.622Z,7.75
2023-01-20T02:20:30.664Z,6.88
2023-01-20T02:23:00.014Z,6.78
2023-01-20T02:25:48.473Z,8.03
2023-01-20T02:28:42.987Z,7.68
2023-01-20T02:31:46.986Z,7.32
2023-01-20T02:34:28.562Z,7.07
2023-01-20T02:36:57.158Z,7.00
2023-01-20T02:39:32.415Z,7.60
2023-01-20T02:42:25.934Z,6.88
2023-01-20T02:44:56.924Z,7.68
2023-01-20T02:47:37.835Z,6.93
2023-01-20T02:50:18.081Z,7.57
2023-01-20T02:52:46.585Z,7.47
2023-01-20T02:55:17.640Z,7.85
2023-01-20T02:57:48.808Z,7.47
2023-01-20T03:00:25.878Z,6.68
2023-01-20T03:02:53.792Z,7.88
2023-01-20T03:05:24.022Z,7.03
2023-01-20T03:07:52.145Z,6.90
2023-01-20T03:10:20.623Z,8.40
2023-01-20T03:12:53.400Z,7.70
2023-01-20T03:15:24.132Z,7.38
2023-01-20T03:17:51.344Z,7.43
2023-01-20T03:20:18.315Z,7.93
2023-01-20T03:22:45.052Z,8.13
2023-01-20T03:25:14.047Z,8.07
2023-01-20T03:27:41.560Z,8.48
2023-01-20T03:30:17.677Z,8.27
2023-01-20T03:32:46.451Z,7.40
2023-01-20T03:35:16.464Z,7.53
2023-01-20T03:37:43.949Z,7.65
2023-01-20T03:40:11.449Z,8.07
2023-01-20T03:42:49.515Z,7.17
2023-01-20T03:45:33.414Z,7.50
2023-01-20T03:48:12.773Z,7.68
2023-01-20T03:50:41.191Z,7.40
2023-01-20T03:53:16.911Z,8.20
2023-01-20T03:55:48.167Z,8.43
2023-01-20T03:58:21.542Z,8.38
2023-01-20T04:00:49.440Z,8.10
2023-01-20T04:03:22.839Z,8.32
2023-01-20T04:05:50.039Z,8.63
2023-01-20T04:08:18.319Z,7.47
2023-01-20T04:10:47.136Z,7.60
2023-01-20T04:13:14.814Z,9.00
2023-01-20T04:15:44.498Z,8.60
2023-01-20T04:18:19.753Z,8.20
2023-01-20T04:20:49.543Z,8.20
2023-01-20T04:23:24.320Z,8.55
2023-01-20T04:25:51.092Z,9.50
2023-01-20T04:28:17.815Z,7.57
2023-01-20T04:30:44.818Z,8.18
2023-01-20T04:33:11.759Z,8.80
2023-01-20T04:35:38.448Z,7.45
2023-01-20T04:38:05.581Z,8.63
2023-01-20T04:40:32.624Z,8.23
2023-01-20T04:42:59.276Z,8.70
2023-01-20T04:45:26.062Z,7.93
2023-01-20T04:47:52.902Z,8.07
2023-01-20T04:50:19.729Z,8.02
2023-01-20T04:52:46.470Z,8.05
2023-01-20T04:55:13.997Z,7.55
2023-01-20T04:57:40.985Z,8.13
2023-01-20T05:00:08.668Z,8.02
2023-01-20T05:02:35.519Z,7.82
2023-01-20T05:05:02.338Z,7.88
2023-01-20T05:07:29.067Z,8.43
2023-01-20T05:09:55.766Z,8.60
2023-01-20T05:12:22.531Z,8.18
2023-01-20T05:14:49.280Z,7.55
2023-01-20T05:17:15.985Z,7.05
2023-01-20T05:19:43.683Z,7.40
2023-01-20T05:22:10.600Z,6.93
2023-01-20T05:24:37.258Z,6.95
2023-01-20T05:27:04.029Z,7.25
2023-01-20T05:29:30.839Z,6.97
2023-01-20T05:31:57.600Z,6.00
2023-01-20T05:34:24.441Z,6.50
2023-01-20T05:36:53.016Z,5.38
2023-01-20T05:39:20.117Z,5.20
2023-01-20T05:41:47.633Z,6.22
2023-01-20T05:44:15.255Z,7.43
2023-01-20T05:46:42.152Z,8.10
2023-01-20T05:49:11.804Z,6.72
2023-01-20T05:51:38.753Z,7.50
2023-01-20T05:54:05.651Z,7.70
2023-01-20T05:56:32.588Z,8.07
2023-01-20T05:58:59.375Z,6.73
2023-01-20T06:01:26.148Z,7.25
2023-01-20T06:03:52.884Z,8.57
2023-01-20T06:06:19.643Z,8.30
2023-01-20T06:08:46.444Z,7.95
2023-01-20T06:11:14.813Z,8.53
2023-01-20T06:13:41.582Z,7.85
2023-01-20T06:16:08.386Z,8.50
2023-01-20T06:18:35.415Z,8.45
2023-01-20T06:21:02.237Z,7.43
2023-01-20T06:23:29.843Z,7.33
2023-01-20T06:26:00.455Z,6.68
2023-01-20T06:28:27.623Z,7.05
2023-01-20T06:31:05.987Z,7.22
2023-01-20T06:33:33.217Z,6.78
2023-01-20T06:36:00.633Z,7.60
2023-01-20T06:38:30.016Z,8.00
2023-01-20T06:41:00.978Z,7.80
2023-01-20T06:43:31.724Z,6.18
2023-01-20T06:46:00.339Z,6.55
2023-01-20T06:48:27.188Z,5.27
2023-01-20T06:50:54.069Z,5.15
2023-01-20T06:53:20.864Z,6.00
2023-01-20T06:55:56.150Z,5.82
2023-01-20T06:58:24.952Z,6.22
2023-01-20T07:00:52.308Z,6.00
2023-01-20T07:03:19.600Z,6.15
2023-01-20T07:05:58.974Z,6.07
2023-01-20T07:08:25.870Z,7.60
2023-01-20T07:10:52.681Z,7.88
2023-01-20T07:13:19.487Z,9.20
2023-01-20T07:15:46.265Z,9.38
2023-01-20T07:18:13.311Z,9.57
2023-01-20T07:20:40.290Z,9.27
2023-01-20T07:23:07.856Z,8.98
2023-01-20T07:25:34.793Z,9.67
2023-01-20T07:28:01.533Z,9.57
2023-01-20T07:30:28.388Z,10.40
2023-01-20T07:32:55.234Z,10.52
2023-01-20T07:35:22.077Z,9.82
2023-01-20T07:37:48.852Z,10.17
2023-01-20T07:40:15.765Z,11.18
2023-01-20T07:42:42.661Z,11.32
2023-01-20T07:45:09.815Z,10.40
2023-01-20T07:47:36.509Z,9.88
2023-01-20T07:50:03.464Z,10.47
2023-01-20T07:52:30.224Z,10.88
2023-01-20T07:54:56.935Z,10.57
2023-01-20T07:57:23.744Z,9.55
2023-01-20T07:59:51.736Z,9.45
2023-01-20T08:02:18.486Z,8.43
2023-01-20T08:04:45.259Z,8.88
2023-01-20T08:07:12.287Z,9.98
2023-01-20T08:09:41.068Z,10.18
2023-01-20T08:12:08.024Z,10.27
2023-01-20T08:14:37.668Z,9.67
2023-01-20T08:17:04.630Z,9.98
2023-01-20T08:19:31.429Z,9.70
2023-01-20T08:21:58.211Z,9.10
2023-01-20T08:24:24.917Z,10.13
2023-01-20T08:26:52.039Z,9.73
2023-01-20T08:29:19.115Z,9.63
2023-01-20T08:31:45.950Z,9.73
2023-01-20T08:34:12.940Z,9.15
2023-01-20T08:36:41.018Z,10.18
2023-01-20T08:39:09.787Z,10.03
2023-01-20T08:41:38.813Z,9.77
2023-01-20T08:44:07.102Z,9.65
2023-01-20T08:46:34.575Z,8.23
2023-01-20T08:49:01.338Z,8.98
2023-01-20T08:51:30.506Z,9.13
2023-01-20T08:53:57.623Z,9.38
2023-01-20T08:56:24.400Z,9.85
2023-01-20T08:58:51.225Z,9.27
2023-01-20T09:01:23.887Z,8.90
2023-01-20T09:04:04.227Z,10.03
2023-01-20T09:06:39.581Z,9.18
2023-01-20T09:09:06.408Z,9.07
2023-01-20T09:11:33.513Z,9.07
2023-01-20T09:14:00.389Z,8.00
2023-01-20T09:16:28.052Z,8.20
2023-01-20T09:18:54.860Z,8.27
2023-01-20T09:21:21.980Z,8.45
2023-01-20T09:23:48.807Z,7.60
2023-01-20T09:26:26.093Z,7.85
2023-01-20T09:29:09.752Z,7.60
2023-01-20T09:31:44.491Z,8.80
2023-01-20T09:34:18.931Z,8.82
2023-01-20T09:36:46.304Z,8.48
2023-01-20T09:39:34.440Z,8.43
2023-01-20T09:42:30.883Z,8.67
2023-01-20T09:45:27.897Z,7.22
2023-01-20T09:48:14.288Z,7.25
2023-01-20T09:51:09.819Z,6.97
2023-01-20T09:53:50.949Z,6.65
2023-01-20T09:56:18.772Z,6.50
2023-01-20T09:58:57.652Z,6.55
2023-01-20T10:01:30.952Z,6.15
2023-01-20T10:04:01.906Z,5.65
2023-01-20T10:06:37.598Z,6.20
2023-01-20T10:09:08.802Z,5.30
2023-01-20T10:11:39.166Z,5.75
2023-01-20T10:14:26.586Z,5.57
2023-01-20T10:17:02.552Z,5.93
2023-01-20T10:19:37.788Z,5.05
2023-01-20T10:22:20.570Z,6.20
2023-01-20T10:24:59.665Z,4.88
2023-01-20T10:27:28.694Z,5.15
2023-01-20T10:30:09.033Z,5.47
2023-01-20T10:33:01.161Z,4.80
2023-01-20T10:35:29.546Z,4.80
2023-01-20T10:37:58.623Z,4.45
2023-01-20T10:40:35.342Z,4.22
2023-01-20T10:43:10.686Z,4.50
2023-01-20T10:46:01.883Z,5.93
2023-01-20T10:48:50.302Z,5.30
2023-01-20T10:51:35.321Z,5.15
2023-01-20T10:54:37.475Z,6.10
2023-01-20T10:57:05.052Z,4.72
2023-01-20T10:59:40.286Z,5.35
2023-01-20T11:02:30.772Z,5.80
2023-01-20T11:04:59.968Z,4.78
2023-01-20T11:07:27.718Z,5.18
2023-01-20T11:09:54.711Z,5.65
2023-01-20T11:12:27.512Z,5.68
2023-01-20T11:14:55.723Z,6.40
2023-01-20T11:17:22.485Z,7.85
2023-01-20T11:19:51.989Z,6.53
2023-01-20T11:22:26.744Z,6.85
2023-01-20T11:24:56.307Z,6.88
2023-01-20T11:27:27.371Z,6.40
2023-01-20T11:30:03.986Z,6.15
2023-01-20T11:32:32.151Z,5.88
2023-01-20T11:35:00.661Z,6.30
2023-01-20T11:37:36.464Z,8.32
2023-01-20T11:40:18.163Z,7.50
2023-01-20T11:42:47.119Z,8.68
2023-01-20T11:45:27.499Z,8.20
2023-01-20T11:48:06.405Z,7.55
2023-01-20T11:50:56.274Z,7.68
2023-01-20T11:53:31.828Z,8.07
2023-01-20T11:56:01.496Z,7.80
2023-01-20T11:58:32.326Z,6.53
2023-01-20T12:01:07.126Z,6.65
2023-01-20T12:04:10.571Z,6.28
2023-01-20T12:06:46.667Z,6.17
2023-01-20T12:09:16.080Z,7.00
2023-01-20T12:11:50.134Z,6.50
2023-01-20T12:14:20.077Z,4.80
2023-01-20T12:17:06.654Z,5.28
2023-01-20T12:19:42.512Z,4.27
2023-01-20T12:22:18.336Z,4.45
2023-01-20T12:25:08.684Z,3.65
2023-01-20T12:27:41.987Z,2.90
2023-01-20T12:30:32.317Z,2.97
2023-01-20T12:32:59.211Z,3.60
2023-01-20T12:35:29.585Z,4.45
2023-01-20T12:38:00.364Z,4.55
2023-01-20T12:40:30.036Z,5.38
2023-01-20T12:43:14.751Z,7.28
2023-01-20T12:45:45.666Z,7.43
2023-01-20T12:48:51.133Z,8.20
2023-01-20T12:51:34.997Z,8.38
2023-01-20T12:54:28.521Z,7.38
2023-01-20T12:57:12.953Z,8.20
2023-01-20T12:59:45.378Z,7.87
2023-01-20T13:02:46.343Z,8.55
2023-01-20T13:05:29.213Z,9.80
2023-01-20T13:08:36.613Z,8.82
2023-01-20T13:11:35.419Z,9.65
2023-01-20T13:14:23.363Z,8.73
2023-01-20T13:16:53.479Z,9.18
2023-01-20T13:19:35.414Z,9.65
2023-01-20T13:22:24.244Z,8.82
2023-01-20T13:24:53.331Z,8.43
2023-01-20T13:27:40.277Z,9.57
2023-01-20T13:30:08.336Z,9.88
2023-01-20T13:32:45.446Z,9.43
2023-01-20T13:35:18.365Z,9.52
2023-01-20T13:37:52.466Z,10.25
2023-01-20T13:40:37.717Z,9.33
2023-01-20T13:43:25.578Z,9.10
2023-01-20T13:46:07.692Z,10.02
2023-01-20T13:48:35.958Z,10.25
2023-01-20T13:51:21.533Z,10.07
2023-01-20T13:53:48.344Z,9.87
2023-01-20T13:56:28.708Z,9.68
2023-01-20T13:58:58.220Z,9.52
2023-01-20T14:01:26.104Z,9.52
2023-01-20T14:04:02.939Z,9.98
2023-01-20T14:06:30.061Z,10.07
2023-01-20T14:08:57.077Z,10.18
2023-01-20T14:11:25.873Z,9.35
2023-01-20T14:13:58.063Z,10.35
2023-01-20T14:16:30.083Z,9.48
2023-01-20T14:19:00.081Z,10.27
2023-01-20T14:21:29.163Z,9.77
2023-01-20T14:23:56.582Z,11.27
2023-01-20T14:26:23.371Z,10.85
2023-01-20T14:28:55.648Z,10.30
2023-01-20T14:31:36.590Z,9.23
2023-01-20T14:34:29.080Z,10.73
2023-01-20T14:36:57.979Z,10.80
2023-01-20T14:39:26.734Z,10.45
2023-01-20T14:41:57.730Z,10.95
2023-01-20T14:44:29.198Z,12.60
2023-01-20T14:46:57.887Z,12.27
2023-01-20T14:49:32.603Z,13.43
2023-01-20T14:52:00.077Z,13.57
2023-01-20T14:54:35.209Z,13.88
2023-01-20T14:57:25.710Z,13.73
2023-01-20T15:00:03.977Z,12.80
2023-01-20T15:02:34.578Z,13.35
2023-01-20T15:05:01.619Z,13.05
2023-01-20T15:07:28.559Z,11.82
2023-01-20T15:10:04.065Z,11.67
2023-01-20T15:12:30.788Z,10.13
2023-01-20T15:15:06.614Z,11.68
2023-01-20T15:17:33.389Z,9.18
2023-01-20T15:20:00.121Z,10.88
2023-01-20T15:22:27.404Z,10.33
2023-01-20T15:24:54.523Z,10.07
2023-01-20T15:27:28.803Z,9.40
2023-01-20T15:30:20.149Z,10.63
2023-01-20T15:32:47.771Z,11.25
2023-01-20T15:35:16.457Z,13.30
2023-01-20T15:37:43.939Z,12.57
2023-01-20T15:40:16.686Z,11.50
2023-01-20T15:42:43.831Z,13.18
2023-01-20T15:45:15.149Z,13.98
2023-01-20T15:47:42.911Z,15.67
2023-01-20T15:50:19.088Z,15.77
2023-01-20T15:52:46.100Z,16.05
2023-01-20T15:55:14.940Z,15.55
2023-01-20T15:57:42.305Z,14.80
2023-01-20T16:00:17.147Z,14.73
2023-01-20T16:02:44.155Z,15.60
2023-01-20T16:05:14.626Z,15.20
2023-01-20T16:07:44.245Z,14.18
2023-01-20T16:10:18.563Z,13.27
2023-01-20T16:12:46.322Z,12.83
2023-01-20T16:15:15.286Z,12.27
2023-01-20T16:17:42.250Z,13.85
2023-01-20T16:20:29.320Z,13.23
2023-01-20T16:22:57.401Z,12.48
2023-01-20T16:25:24.726Z,12.53
2023-01-20T16:27:53.518Z,12.75
2023-01-20T16:30:22.766Z,12.38
2023-01-20T16:32:50.160Z,12.52
2023-01-20T16:35:18.430Z,12.45
2023-01-20T16:37:47.465Z,13.77
2023-01-20T16:40:16.654Z,13.65
2023-01-20T16:42:43.761Z,11.30
2023-01-20T16:45:23.974Z,13.90
2023-01-20T16:47:50.964Z,13.52
2023-01-20T16:50:18.532Z,12.93
2023-01-20T16:52:45.971Z,12.43
2023-01-20T16:55:13.682Z,13.48
2023-01-20T16:57:40.502Z,11.35
2023-01-20T17:00:08.543Z,13.70
2023-01-20T17:02:35.390Z,12.23
2023-01-20T17:05:02.247Z,12.90
2023-01-20T17:07:28.967Z,11.68
2023-01-20T17:09:56.290Z,13.43
2023-01-20T17:12:23.296Z,14.23
2023-01-20T17:14:50.133Z,12.90
2023-01-20T17:17:16.945Z,13.85
2023-01-20T17:19:43.983Z,13.20
2023-01-20T17:22:10.831Z,13.15
2023-01-20T17:24:39.266Z,12.02
2023-01-20T17:27:07.019Z,12.50
2023-01-20T17:29:38.806Z,13.10
2023-01-20T17:32:05.591Z,13.75
2023-01-20T17:34:32.473Z,12.20
2023-01-20T17:36:59.970Z,13.60
2023-01-20T17:39:33.127Z,12.43
2023-01-20T17:41:59.891Z,12.88
2023-01-20T17:44:26.633Z,12.88
2023-01-20T17:46:53.614Z,10.80
2023-01-20T17:49:20.627Z,11.55
2023-01-20T17:51:47.596Z,11.17
2023-01-20T17:54:14.305Z,10.68
2023-01-20T17:56:41.201Z,10.15
2023-01-20T17:59:08.033Z,9.77
2023-01-20T18:01:35.054Z,10.93
2023-01-20T18:04:04.333Z,9.70
2023-01-20T18:06:34.935Z,11.02
2023-01-20T18:09:02.646Z,11.48
2023-01-20T18:11:32.086Z,11.48
2023-01-20T18:14:00.389Z,9.48
2023-01-20T18:16:30.575Z,10.00
2023-01-20T18:19:00.839Z,9.93
2023-01-20T18:21:33.183Z,8.27
2023-01-20T18:24:01.163Z,8.75
2023-01-20T18:26:30.912Z,7.72
2023-01-20T18:29:02.432Z,8.20
2023-01-20T18:31:31.862Z,7.65
2023-01-20T18:34:01.116Z,7.05
2023-01-20T18:36:33.694Z,6.57
2023-01-20T18:39:08.992Z,7.10
2023-01-20T18:41:37.829Z,6.83
2023-01-20T18:44:05.464Z,6.53
2023-01-20T18:46:32.721Z,7.03
2023-01-20T18:48:59.852Z,6.47
2023-01-20T18:51:28.958Z,6.70
2023-01-20T18:54:13.059Z,5.87
2023-01-20T18:56:40.287Z,6.50
2023-01-20T18:59:07.892Z,5.80
2023-01-20T19:01:37.964Z,5.95
2023-01-20T19:04:06.361Z,5.78
2023-01-20T19:06:36.895Z,5.80
2023-01-20T19:09:04.440Z,5.47
2023-01-20T19:11:34.373Z,6.03
2023-01-20T19:14:01.659Z,6.50
2023-01-20T19:16:33.212Z,6.95
2023-01-20T19:19:02.258Z,6.27
2023-01-20T19:21:33.628Z,6.53
2023-01-20T19:24:05.825Z,6.20
2023-01-20T19:26:35.817Z,7.10
2023-01-20T19:29:06.324Z,8.07
2023-01-20T19:31:35.998Z,7.07
2023-01-20T19:34:03.173Z,7.85
2023-01-20T19:36:30.322Z,8.60
2023-01-20T19:38:57.911Z,7.40
2023-01-20T19:41:29.645Z,8.35
2023-01-20T19:43:58.092Z,9.40
2023-01-20T19:46:27.167Z,9.45
2023-01-20T19:48:56.006Z,9.52
2023-01-20T19:51:24.028Z,8.80
2023-01-20T19:53:58.054Z,8.70
2023-01-20T19:56:27.366Z,9.50
2023-01-20T19:58:55.230Z,8.93
2023-01-20T20:01:24.853Z,8.25
2023-01-20T20:03:52.872Z,9.07
2023-01-20T20:06:49.108Z,8.65
2023-01-20T20:09:18.631Z,9.57
2023-01-20T20:11:46.878Z,9.50
2023-01-20T20:14:16.134Z,10.10
2023-01-20T20:16:43.565Z,8.95
2023-01-20T20:19:14.143Z,10.35
2023-01-20T20:21:41.228Z,8.97
2023-01-20T20:24:10.562Z,9.73
2023-01-20T20:26:37.765Z,9.88
2023-01-20T20:29:06.801Z,10.98
2023-01-20T20:31:35.655Z,10.73
2023-01-20T20:34:03.304Z,10.97
2023-01-20T20:36:31.025Z,10.60
2023-01-20T20:38:59.182Z,10.68
2023-01-20T20:41:28.884Z,10.88
2023-01-20T20:43:56.525Z,10.65
2023-01-20T20:46:23.656Z,11.37
2023-01-20T20:48:54.531Z,10.88
2023-01-20T20:51:23.728Z,11.35
2023-01-20T20:53:56.273Z,11.65
2023-01-20T20:56:23.876Z,10.88
2023-01-20T20:59:01.033Z,11.07
2023-01-20T21:01:30.992Z,10.82
2023-01-20T21:04:00.245Z,10.63
2023-01-20T21:06:27.483Z,11.10
2023-01-20T21:08:54.549Z,10.95
2023-01-20T21:11:21.774Z,10.87
2023-01-20T21:13:51.685Z,10.85
2023-01-20T21:16:22.067Z,11.13
2023-01-20T21:18:50.323Z,10.70
2023-01-20T21:21:19.235Z,9.75
2023-01-20T21:23:54.190Z,10.00
2023-01-20T21:26:21.445Z,10.23
2023-01-20T21:28:51.249Z,9.68
2023-01-20T21:31:21.369Z,10.63
2023-01-20T21:33:53.504Z,9.70
2023-01-20T21:36:21.513Z,8.87
2023-01-20T21:38:48.440Z,10.63
2023-01-20T21:41:15.649Z,10.35
2023-01-20T21:44:03.003Z,9.75
2023-01-20T21:46:38.264Z,9.95
2023-01-20T21:49:24.775Z,9.47
2023-01-20T21:52:10.122Z,11.07
2023-01-20T21:54:39.396Z,10.55
2023-01-20T21:57:06.171Z,9.75
2023-01-20T21:59:32.887Z,9.07
2023-01-20T22:01:59.785Z,8.87
2023-01-20T22:04:26.603Z,9.60
2023-01-20T22:06:53.348Z,9.85
2023-01-20T22:09:20.149Z,10.02
2023-01-20T22:11:46.928Z,9.50
2023-01-20T22:14:13.685Z,9.20
2023-01-20T22:16:40.641Z,10.27
2023-01-20T22:19:07.495Z,9.13
2023-01-20T22:21:34.307Z,9.45
2023-01-20T22:24:02.810Z,9.43
2023-01-20T22:26:29.718Z,10.87
2023-01-20T22:28:56.754Z,9.57
2023-01-20T22:31:24.073Z,10.98
2023-01-20T22:33:54.909Z,10.55
2023-01-20T22:36:22.645Z,10.50
2023-01-20T22:38:50.655Z,9.67
2023-01-20T22:41:18.442Z,9.85
2023-01-20T22:43:45.246Z,10.07
2023-01-20T22:46:13.695Z,9.90
2023-01-20T22:48:41.202Z,10.63
2023-01-20T22:51:10.703Z,10.10
2023-01-20T22:53:38.295Z,10.68
2023-01-20T22:56:07.127Z,11.18
2023-01-20T22:58:34.267Z,10.07
2023-01-20T23:01:01.356Z,10.18
2023-01-20T23:03:28.298Z,9.27
2023-01-20T23:05:57.209Z,10.43
2023-01-20T23:08:27.379Z,10.57
2023-01-20T23:11:00.196Z,9.95
2023-01-20T23:13:28.951Z,10.32
2023-01-20T23:15:56.297Z,10.10
2023-01-20T23:18:23.711Z,10.00
2023-01-20T23:20:54.272Z,11.15
2023-01-20T23:23:21.605Z,10.75
2023-01-20T23:25:48.324Z,10.82
2023-01-20T23:28:15.933Z,9.83
2023-01-20T23:30:43.616Z,10.07
2023-01-20T23:33:10.489Z,11.15
2023-01-20T23:35:39.055Z,10.52
2023-01-20T23:38:07.089Z,9.85
2023-01-20T23:40:34.922Z,10.60
2023-01-20T23:43:01.663Z,10.60
2023-01-20T23:45:28.827Z,10.82
2023-01-20T23:47:55.657Z,10.82
2023-01-20T23:50:22.495Z,10.43
2023-01-20T23:52:49.206Z,9.33
2023-01-20T23:55:16.028Z,9.43
2023-01-20T23:57:42.814Z,10.75
